createdAt,value
2023-01-30T00:00:24.536Z,-0.04
2023-01-30T00:03:14.836Z,-0.04
2023-01-30T00:05:47.368Z,-0.04
2023-01-30T00:08:18.022Z,0.02
2023-01-30T00:10:49.602Z,-0.03
2023-01-30T00:13:20.047Z,-0.04
2023-01-30T00:15:51.083Z,-0.07
2023-01-30T00:18:21.478Z,-0.03
2023-01-30T00:20:58.702Z,-0.09
2023-01-30T00:23:29.860Z,-0.09
2023-01-30T00:26:00.122Z,-0.08
2023-01-30T00:28:30.700Z,-0.08
2023-01-30T00:31:00.892Z,-0.09
2023-01-30T00:33:32.138Z,-0.11
2023-01-30T00:36:05.436Z,-0.10
2023-01-30T00:38:35.784Z,-0.10
2023-01-30T00:41:06.055Z,-0.10
2023-01-30T00:43:48.819Z,-0.11
2023-01-30T00:46:45.589Z,-0.10
2023-01-30T00:49:16.442Z,-0.12
2023-01-30T00:51:49.206Z,-0.10
2023-01-30T00:54:19.448Z,-0.10
2023-01-30T00:56:49.829Z,-0.07
2023-01-30T00:59:20.344Z,-0.07
2023-01-30T01:01:50.319Z,-0.07
2023-01-30T01:04:21.642Z,-0.09
2023-01-30T01:06:54.560Z,-0.13
2023-01-30T01:09:25.126Z,-0.12
2023-01-30T01:11:56.182Z,-0.07
2023-01-30T01:14:27.394Z,-0.06
2023-01-30T01:16:58.879Z,-0.07
2023-01-30T01:19:29.985Z,-0.09
2023-01-30T01:22:02.925Z,-0.08
2023-01-30T01:24:34.787Z,-0.09
2023-01-30T01:27:05.664Z,-0.15
2023-01-30T01:29:37.899Z,-0.10
2023-01-30T01:32:09.502Z,-0.08
2023-01-30T01:34:41.425Z,-0.10
2023-01-30T01:37:14.355Z,-0.11
2023-01-30T01:39:57.403Z,-0.09
2023-01-30T01:42:29.118Z,-0.04
2023-01-30T01:45:13.735Z,-0.05
2023-01-30T01:47:50.015Z,-0.06
2023-01-30T01:50:25.096Z,-0.08
2023-01-30T01:53:02.962Z,-0.07
2023-01-30T01:55:34.784Z,-0.05
2023-01-30T01:58:11.087Z,-0.07
2023-01-30T02:00:42.161Z,-0.07
2023-01-30T02:03:17.547Z,-0.04
2023-01-30T02:05:51.343Z,-0.14
2023-01-30T02:08:28.533Z,-0.19
2023-01-30T02:11:04.355Z,-0.17
2023-01-30T02:13:35.147Z,-0.21
2023-01-30T02:16:07.767Z,-0.24
2023-01-30T02:18:42.610Z,-0.25
2023-01-30T02:21:57.414Z,-0.32
2023-01-30T02:24:57.237Z,-0.35
2023-01-30T02:28:04.799Z,-0.43
2023-01-30T02:31:03.702Z,-0.46
2023-01-30T02:33:42.784Z,-0.44
2023-01-30T02:36:22.951Z,-0.41
2023-01-30T02:39:03.523Z,-0.39
2023-01-30T02:41:39.963Z,-0.38
2023-01-30T02:44:18.536Z,-0.34
2023-01-30T02:46:57.993Z,-0.31
2023-01-30T02:49:35.462Z,-0.28
2023-01-30T02:52:08.987Z,-0.30
2023-01-30T02:54:39.199Z,-0.37
2023-01-30T02:57:21.532Z,-0.38
2023-01-30T02:59:55.798Z,-0.42
2023-01-30T03:02:52.128Z,-0.49
2023-01-30T03:05:42.840Z,-0.50
2023-01-30T03:08:23.091Z,-0.53
2023-01-30T03:11:01.520Z,-0.52
2023-01-30T03:13:43.641Z,-0.48
2023-01-30T03:16:18.637Z,-0.46
2023-01-30T03:18:52.163Z,-0.44
2023-01-30T03:21:22.449Z,-0.43
2023-01-30T03:23:52.354Z,-0.43
2023-01-30T03:26:26.375Z,-0.40
2023-01-30T03:28:56.968Z,-0.35
2023-01-30T03:31:27.597Z,-0.35
2023-01-30T03:34:00.489Z,-0.35
2023-01-30T03:36:31.172Z,-0.27
2023-01-30T03:39:01.554Z,-0.25
2023-01-30T03:41:32.356Z,-0.26
2023-01-30T03:44:02.679Z,-0.28
2023-01-30T03:46:33.083Z,-0.25
2023-01-30T03:49:05.650Z,-0.22
2023-01-30T03:51:35.902Z,-0.21
2023-01-30T03:54:06.042Z,-0.18
2023-01-30T03:56:36.332Z,-0.12
2023-01-30T03:59:07.225Z,-0.09
2023-01-30T04:01:37.571Z,-0.07
2023-01-30T04:04:10.169Z,-0.12
2023-01-30T04:06:40.433Z,-0.12
2023-01-30T04:09:10.308Z,-0.11
2023-01-30T04:11:40.655Z,-0.08
2023-01-30T04:14:10.593Z,-0.07
2023-01-30T04:16:40.941Z,-0.04
2023-01-30T04:19:13.501Z,0.01
2023-01-30T04:21:43.810Z,0.03
2023-01-30T04:24:13.921Z,0.06
2023-01-30T04:26:44.281Z,0.10
2023-01-30T04:29:14.284Z,0.12
2023-01-30T04:31:44.608Z,0.13
2023-01-30T04:34:17.250Z,0.16
2023-01-30T04:36:47.488Z,0.17
2023-01-30T04:39:17.425Z,0.20
2023-01-30T04:41:47.612Z,0.23
2023-01-30T04:44:17.465Z,0.26
2023-01-30T04:46:47.777Z,0.30
2023-01-30T04:49:20.253Z,0.36
2023-01-30T04:51:50.591Z,0.36
2023-01-30T04:54:20.580Z,0.38
2023-01-30T04:56:50.906Z,0.39
2023-01-30T04:59:20.812Z,0.42
2023-01-30T05:01:51.200Z,0.45
2023-01-30T05:04:23.848Z,0.42
2023-01-30T05:06:54.141Z,0.37
2023-01-30T05:09:24.085Z,0.29
2023-01-30T05:11:54.455Z,0.21
2023-01-30T05:14:24.396Z,0.16
2023-01-30T05:16:54.811Z,0.10
2023-01-30T05:19:27.525Z,0.06
2023-01-30T05:21:57.883Z,0.02
2023-01-30T05:24:28.075Z,0.02
2023-01-30T05:26:58.382Z,0.00
2023-01-30T05:29:28.427Z,-0.05
2023-01-30T05:31:58.851Z,-0.07
2023-01-30T05:34:31.606Z,-0.08
2023-01-30T05:37:01.899Z,-0.09
2023-01-30T05:39:33.048Z,-0.11
2023-01-30T05:42:03.395Z,-0.11
2023-01-30T05:44:33.752Z,-0.09
2023-01-30T05:47:04.471Z,-0.10
2023-01-30T05:49:37.349Z,-0.12
2023-01-30T05:52:08.328Z,-0.12
2023-01-30T05:54:38.685Z,-0.13
2023-01-30T05:57:09.295Z,-0.13
2023-01-30T05:59:39.509Z,-0.14
2023-01-30T06:02:11.252Z,-0.13
2023-01-30T06:04:44.876Z,-0.17
2023-01-30T06:07:17.230Z,-0.16
2023-01-30T06:09:47.520Z,-0.12
2023-01-30T06:12:18.644Z,-0.09
2023-01-30T06:14:48.611Z,-0.10
2023-01-30T06:17:18.807Z,-0.07
2023-01-30T06:19:51.335Z,-0.03
2023-01-30T06:22:21.653Z,0.03
2023-01-30T06:24:51.567Z,0.06
2023-01-30T06:27:22.007Z,0.10
2023-01-30T06:29:51.935Z,0.11
2023-01-30T06:32:22.195Z,0.16
2023-01-30T06:34:54.764Z,0.18
2023-01-30T06:37:25.027Z,0.21
2023-01-30T06:39:54.951Z,0.24
2023-01-30T06:42:25.310Z,0.27
2023-01-30T06:44:55.316Z,0.30
2023-01-30T06:47:25.585Z,0.33
2023-01-30T06:49:58.149Z,0.34
2023-01-30T06:52:28.447Z,0.37
2023-01-30T06:54:58.421Z,0.41
2023-01-30T06:57:28.759Z,0.40
2023-01-30T06:59:58.714Z,0.44
2023-01-30T07:02:35.379Z,0.46
2023-01-30T07:05:10.081Z,0.46
2023-01-30T07:07:41.420Z,0.46
2023-01-30T07:10:13.479Z,0.49
2023-01-30T07:12:43.766Z,0.51
2023-01-30T07:15:14.155Z,0.53
2023-01-30T07:17:44.620Z,0.55
2023-01-30T07:20:17.476Z,0.57
2023-01-30T07:22:52.360Z,0.59
2023-01-30T07:25:23.378Z,0.62
2023-01-30T07:27:54.354Z,0.65
2023-01-30T07:30:24.511Z,0.67
2023-01-30T07:32:55.748Z,0.72
2023-01-30T07:35:30.232Z,0.74
2023-01-30T07:38:01.216Z,0.76
2023-01-30T07:40:31.292Z,0.79
2023-01-30T07:43:03.054Z,0.80
2023-01-30T07:45:37.995Z,0.83
2023-01-30T07:48:09.006Z,0.90
2023-01-30T07:50:42.350Z,0.93
2023-01-30T07:53:14.861Z,1.00
2023-01-30T07:55:45.080Z,1.01
2023-01-30T07:58:17.176Z,1.03
2023-01-30T08:00:48.034Z,1.04
2023-01-30T08:03:19.603Z,1.07
2023-01-30T08:05:53.564Z,1.08
2023-01-30T08:08:23.994Z,1.09
2023-01-30T08:10:53.941Z,1.08
2023-01-30T08:13:24.689Z,1.10
2023-01-30T08:15:54.967Z,1.11
2023-01-30T08:18:25.258Z,1.14
2023-01-30T08:20:59.913Z,1.21
2023-01-30T08:23:30.733Z,1.25
2023-01-30T08:26:01.587Z,1.28
2023-01-30T08:28:32.611Z,1.31
2023-01-30T08:31:02.715Z,1.33
2023-01-30T08:33:33.081Z,1.36
2023-01-30T08:36:05.676Z,1.44
2023-01-30T08:38:36.051Z,1.55
2023-01-30T08:41:08.443Z,1.58
2023-01-30T08:43:38.982Z,1.60
2023-01-30T08:46:09.239Z,1.66
2023-01-30T08:48:49.443Z,1.71
2023-01-30T08:51:22.842Z,1.70
2023-01-30T08:53:53.384Z,1.75
2023-01-30T08:56:23.528Z,1.73
2023-01-30T08:58:54.131Z,1.73
2023-01-30T09:01:24.279Z,1.75
2023-01-30T09:03:55.014Z,1.78
2023-01-30T09:06:27.609Z,1.80
2023-01-30T09:08:58.034Z,1.81
2023-01-30T09:11:28.463Z,1.93
2023-01-30T09:13:59.016Z,1.91
2023-01-30T09:16:29.342Z,2.00
2023-01-30T09:18:59.797Z,2.14
2023-01-30T09:21:32.617Z,2.18
2023-01-30T09:24:03.128Z,2.25
2023-01-30T09:26:33.322Z,2.35
2023-01-30T09:29:04.077Z,2.43
2023-01-30T09:31:34.109Z,2.58
2023-01-30T09:34:04.501Z,2.67
2023-01-30T09:36:37.133Z,2.68
2023-01-30T09:39:07.718Z,2.70
2023-01-30T09:41:51.340Z,2.78
2023-01-30T09:44:43.363Z,2.82
2023-01-30T09:47:16.829Z,2.78
2023-01-30T09:49:57.399Z,2.74
2023-01-30T09:52:41.588Z,2.80
2023-01-30T09:55:21.152Z,2.83
2023-01-30T09:57:53.375Z,2.85
2023-01-30T10:00:31.425Z,2.93
2023-01-30T10:03:07.312Z,2.97
2023-01-30T10:05:43.307Z,3.08
2023-01-30T10:08:35.091Z,3.07
2023-01-30T10:11:15.666Z,3.14
2023-01-30T10:14:13.193Z,3.16
2023-01-30T10:16:51.069Z,3.11
2023-01-30T10:19:50.337Z,3.11
2023-01-30T10:22:34.745Z,3.12
2023-01-30T10:25:18.780Z,3.06
2023-01-30T10:27:55.594Z,3.14
2023-01-30T10:30:26.076Z,3.24
2023-01-30T10:33:02.209Z,3.25
2023-01-30T10:35:36.779Z,3.33
2023-01-30T10:38:15.299Z,3.49
2023-01-30T10:40:57.543Z,3.66
2023-01-30T10:43:34.523Z,3.74
2023-01-30T10:46:15.724Z,3.65
2023-01-30T10:48:57.611Z,3.61
2023-01-30T10:51:47.076Z,3.65
2023-01-30T10:54:24.653Z,3.60
2023-01-30T10:57:07.988Z,3.56
2023-01-30T10:59:52.916Z,3.52
2023-01-30T11:02:28.050Z,3.58
2023-01-30T11:05:01.961Z,3.57
2023-01-30T11:07:34.374Z,3.58
2023-01-30T11:10:04.794Z,3.62
2023-01-30T11:12:37.520Z,3.71
2023-01-30T11:15:09.088Z,3.75
2023-01-30T11:17:41.938Z,3.62
2023-01-30T11:20:18.009Z,3.72
2023-01-30T11:22:50.300Z,3.74
2023-01-30T11:25:24.211Z,3.73
2023-01-30T11:28:04.186Z,3.82
2023-01-30T11:30:38.446Z,3.81
2023-01-30T11:33:13.944Z,3.87
2023-01-30T11:35:54.406Z,3.88
2023-01-30T11:38:27.092Z,3.83
2023-01-30T11:41:09.135Z,3.87
2023-01-30T11:43:42.921Z,3.96
2023-01-30T11:46:17.257Z,4.00
2023-01-30T11:49:09.135Z,4.03
2023-01-30T11:51:47.515Z,4.00
2023-01-30T11:54:21.144Z,4.08
2023-01-30T11:56:55.402Z,4.17
2023-01-30T11:59:34.643Z,4.26
2023-01-30T12:02:19.244Z,4.32
2023-01-30T12:04:51.254Z,4.49
2023-01-30T12:07:25.139Z,4.47
2023-01-30T12:09:56.578Z,4.72
2023-01-30T12:12:31.450Z,4.93
2023-01-30T12:15:16.081Z,4.86
2023-01-30T12:17:53.406Z,4.87
2023-01-30T12:20:32.636Z,4.89
2023-01-30T12:23:14.241Z,5.15
2023-01-30T12:25:51.047Z,5.49
2023-01-30T12:28:30.444Z,5.75
2023-01-30T12:31:11.298Z,5.71
2023-01-30T12:33:41.994Z,5.55
2023-01-30T12:36:19.595Z,5.44
2023-01-30T12:39:00.506Z,5.17
2023-01-30T12:41:53.552Z,5.14
2023-01-30T12:44:42.911Z,5.08
2023-01-30T12:47:29.487Z,4.96
2023-01-30T12:50:22.887Z,4.85
2023-01-30T12:53:24.101Z,4.77
2023-01-30T12:56:10.188Z,5.02
2023-01-30T12:58:45.969Z,5.10
2023-01-30T13:01:29.483Z,5.17
2023-01-30T13:04:11.953Z,5.07
2023-01-30T13:07:00.704Z,5.13
2023-01-30T13:09:43.479Z,5.05
2023-01-30T13:12:20.129Z,5.02
2023-01-30T13:14:58.643Z,4.98
2023-01-30T13:17:50.398Z,5.11
2023-01-30T13:20:40.750Z,5.10
2023-01-30T13:23:19.933Z,5.00
2023-01-30T13:26:01.466Z,4.98
2023-01-30T13:28:38.738Z,5.14
2023-01-30T13:31:12.706Z,5.05
2023-01-30T13:33:46.590Z,5.00
2023-01-30T13:36:22.361Z,5.00
2023-01-30T13:39:01.274Z,5.01
2023-01-30T13:41:36.563Z,5.05
2023-01-30T13:44:23.190Z,4.97
2023-01-30T13:46:56.207Z,4.98
2023-01-30T13:49:32.964Z,4.99
2023-01-30T13:52:14.330Z,4.94
2023-01-30T13:54:56.024Z,4.61
2023-01-30T13:57:35.787Z,4.50
2023-01-30T14:00:27.474Z,4.33
2023-01-30T14:03:24.828Z,4.26
2023-01-30T14:06:14.599Z,4.25
2023-01-30T14:08:59.285Z,4.21
2023-01-30T14:11:41.635Z,4.12
2023-01-30T14:14:32.510Z,4.01
2023-01-30T14:17:13.756Z,3.98
2023-01-30T14:19:47.092Z,3.95
2023-01-30T14:22:25.633Z,3.96
2023-01-30T14:25:25.541Z,3.72
2023-01-30T14:28:19.217Z,3.66
2023-01-30T14:30:51.129Z,3.57
2023-01-30T14:33:39.682Z,3.44
2023-01-30T14:36:37.796Z,3.55
2023-01-30T14:39:42.113Z,3.49
2023-01-30T14:42:24.977Z,3.18
2023-01-30T14:45:07.674Z,3.25
2023-01-30T14:47:46.624Z,3.33
2023-01-30T14:50:23.649Z,3.01
2023-01-30T14:52:58.870Z,3.18
2023-01-30T14:55:31.382Z,3.01
2023-01-30T14:58:05.198Z,3.17
2023-01-30T15:00:41.570Z,3.03
2023-01-30T15:03:21.294Z,3.06
2023-01-30T15:05:51.969Z,3.12
2023-01-30T15:08:26.221Z,3.14
2023-01-30T15:11:15.946Z,3.11
2023-01-30T15:14:03.243Z,3.13
2023-01-30T15:16:49.107Z,3.27
2023-01-30T15:19:49.436Z,3.19
2023-01-30T15:22:27.625Z,3.23
2023-01-30T15:25:18.541Z,3.09
2023-01-30T15:28:02.803Z,3.09
2023-01-30T15:30:47.982Z,3.12
2023-01-30T15:33:31.046Z,3.13
2023-01-30T15:36:02.736Z,3.16
2023-01-30T15:38:35.355Z,3.17
2023-01-30T15:41:08.045Z,3.22
2023-01-30T15:43:53.943Z,3.19
2023-01-30T15:46:35.787Z,3.24
2023-01-30T15:49:24.883Z,3.27
2023-01-30T15:51:56.283Z,3.19
2023-01-30T15:54:27.574Z,3.21
2023-01-30T15:57:00.661Z,3.27
2023-01-30T15:59:34.852Z,3.31
2023-01-30T16:02:09.616Z,3.31
2023-01-30T16:04:42.609Z,3.32
2023-01-30T16:07:19.393Z,3.39
2023-01-30T16:10:12.919Z,3.49
2023-01-30T16:12:43.372Z,3.43
2023-01-30T16:15:23.424Z,3.42
2023-01-30T16:18:02.294Z,3.35
2023-01-30T16:20:55.335Z,3.36
2023-01-30T16:23:34.412Z,3.41
2023-01-30T16:26:06.134Z,3.41
2023-01-30T16:28:36.614Z,3.44
2023-01-30T16:31:09.385Z,3.37
2023-01-30T16:33:40.183Z,3.31
2023-01-30T16:36:36.744Z,3.28
2023-01-30T16:39:25.335Z,3.21
2023-01-30T16:41:58.260Z,3.20
2023-01-30T16:44:29.952Z,3.19
2023-01-30T16:47:03.500Z,3.17
2023-01-30T16:49:44.468Z,3.15
2023-01-30T16:52:22.715Z,3.15
2023-01-30T16:54:54.927Z,3.16
2023-01-30T16:57:35.960Z,3.18
2023-01-30T17:00:11.594Z,3.23
2023-01-30T17:02:44.568Z,3.21
2023-01-30T17:05:21.313Z,3.21
2023-01-30T17:07:55.745Z,3.26
2023-01-30T17:10:55.476Z,3.26
2023-01-30T17:13:35.198Z,3.27
2023-01-30T17:16:21.123Z,3.25
2023-01-30T17:18:52.260Z,3.19
2023-01-30T17:21:23.258Z,3.12
2023-01-30T17:24:00.183Z,3.10
2023-01-30T17:26:31.049Z,3.10
2023-01-30T17:29:01.718Z,3.19
2023-01-30T17:31:31.803Z,3.21
2023-01-30T17:34:02.260Z,3.16
2023-01-30T17:36:33.620Z,3.19
2023-01-30T17:39:12.387Z,3.21
2023-01-30T17:41:43.713Z,3.26
2023-01-30T17:44:15.060Z,3.31
2023-01-30T17:46:47.679Z,3.29
2023-01-30T17:49:20.259Z,3.31
2023-01-30T17:51:51.601Z,3.36
2023-01-30T17:54:25.351Z,3.39
2023-01-30T17:56:58.159Z,3.40
2023-01-30T17:59:28.557Z,3.44
2023-01-30T18:01:58.697Z,3.46
2023-01-30T18:04:28.968Z,3.48
2023-01-30T18:07:06.326Z,3.54
2023-01-30T18:09:39.308Z,3.59
2023-01-30T18:12:09.623Z,3.62
2023-01-30T18:14:39.930Z,3.68
2023-01-30T18:17:10.114Z,3.72
2023-01-30T18:19:40.518Z,3.77
2023-01-30T18:22:10.458Z,3.78
2023-01-30T18:24:43.652Z,3.86
2023-01-30T18:27:13.595Z,3.89
2023-01-30T18:29:43.835Z,3.89
2023-01-30T18:32:13.844Z,3.92
2023-01-30T18:34:44.547Z,3.97
2023-01-30T18:37:14.474Z,3.98
2023-01-30T18:39:47.441Z,4.00
2023-01-30T18:42:17.824Z,4.00
2023-01-30T18:44:48.331Z,4.02
2023-01-30T18:47:18.629Z,4.03
2023-01-30T18:49:48.945Z,4.04
2023-01-30T18:52:18.892Z,4.08
2023-01-30T18:54:51.907Z,4.06
2023-01-30T18:57:22.002Z,4.09
2023-01-30T18:59:52.418Z,4.11
2023-01-30T19:02:22.446Z,4.10
2023-01-30T19:04:52.844Z,4.11
2023-01-30T19:07:22.902Z,4.12
2023-01-30T19:09:56.468Z,4.13
2023-01-30T19:12:39.706Z,4.11
2023-01-30T19:15:15.155Z,4.12
2023-01-30T19:17:45.235Z,4.12
2023-01-30T19:20:16.535Z,4.11
2023-01-30T19:22:46.751Z,4.12
2023-01-30T19:25:19.841Z,4.10
2023-01-30T19:27:49.880Z,4.10
2023-01-30T19:30:21.069Z,4.02
2023-01-30T19:32:54.292Z,4.06
2023-01-30T19:35:24.913Z,4.01
2023-01-30T19:37:57.482Z,3.98
2023-01-30T19:40:30.463Z,3.98
2023-01-30T19:43:10.491Z,3.98
2023-01-30T19:45:42.302Z,4.00
2023-01-30T19:48:13.825Z,3.97
2023-01-30T19:50:44.077Z,3.98
2023-01-30T19:53:14.289Z,3.96
2023-01-30T19:55:52.441Z,3.99
2023-01-30T19:58:22.749Z,3.99
2023-01-30T20:00:53.413Z,3.94
2023-01-30T20:03:23.725Z,3.90
2023-01-30T20:05:54.312Z,3.87
2023-01-30T20:08:32.262Z,3.85
2023-01-30T20:11:11.975Z,3.82
2023-01-30T20:13:43.736Z,3.78
2023-01-30T20:16:18.648Z,3.76
2023-01-30T20:18:52.691Z,3.79
2023-01-30T20:21:25.677Z,3.74
2023-01-30T20:23:56.661Z,3.77
2023-01-30T20:26:35.068Z,3.73
2023-01-30T20:29:07.116Z,3.75
2023-01-30T20:31:41.931Z,3.73
2023-01-30T20:34:16.547Z,3.73
2023-01-30T20:36:49.805Z,3.76
2023-01-30T20:39:22.475Z,3.78
2023-01-30T20:41:56.381Z,3.75
2023-01-30T20:44:27.151Z,3.77
2023-01-30T20:46:57.495Z,3.79
2023-01-30T20:49:27.476Z,3.79
2023-01-30T20:51:57.813Z,3.80
2023-01-30T20:54:28.054Z,3.75
2023-01-30T20:57:02.696Z,3.71
2023-01-30T20:59:32.761Z,3.69
2023-01-30T21:02:03.182Z,3.69
2023-01-30T21:04:33.451Z,3.71
2023-01-30T21:07:03.808Z,3.71
2023-01-30T21:09:33.868Z,3.68
2023-01-30T21:12:07.863Z,3.72
2023-01-30T21:14:38.349Z,3.72
2023-01-30T21:17:08.635Z,3.72
2023-01-30T21:19:41.357Z,3.71
2023-01-30T21:22:13.731Z,3.69
2023-01-30T21:24:43.654Z,3.70
2023-01-30T21:27:16.513Z,3.66
2023-01-30T21:29:46.478Z,3.64
2023-01-30T21:32:16.796Z,3.62
2023-01-30T21:34:46.749Z,3.58
2023-01-30T21:37:31.335Z,3.54
2023-01-30T21:40:16.100Z,3.51
2023-01-30T21:43:04.117Z,3.45
2023-01-30T21:45:35.392Z,3.49
2023-01-30T21:48:07.289Z,3.50
2023-01-30T21:50:37.448Z,3.48
2023-01-30T21:53:07.740Z,3.43
2023-01-30T21:55:37.876Z,3.41
2023-01-30T21:58:10.806Z,3.37
2023-01-30T22:00:40.991Z,3.32
2023-01-30T22:03:11.302Z,3.30
2023-01-30T22:05:41.243Z,3.28
2023-01-30T22:08:11.882Z,3.28
2023-01-30T22:10:42.064Z,3.23
2023-01-30T22:13:14.941Z,3.16
2023-01-30T22:15:45.032Z,3.14
2023-01-30T22:18:15.367Z,3.11
2023-01-30T22:20:45.339Z,3.08
2023-01-30T22:23:15.557Z,3.07
2023-01-30T22:25:45.469Z,3.03
2023-01-30T22:28:18.364Z,2.99
2023-01-30T22:30:48.402Z,2.93
2023-01-30T22:33:19.660Z,2.98
2023-01-30T22:35:52.333Z,2.97
2023-01-30T22:38:23.122Z,2.91
2023-01-30T22:41:04.116Z,2.93
2023-01-30T22:43:39.413Z,2.88
2023-01-30T22:46:10.996Z,2.89
2023-01-30T22:48:41.931Z,2.91
2023-01-30T22:51:15.584Z,2.86
2023-01-30T22:53:48.844Z,2.86
2023-01-30T22:56:20.529Z,2.80
2023-01-30T22:58:54.480Z,2.84
2023-01-30T23:01:26.179Z,2.82
2023-01-30T23:03:58.294Z,2.75
2023-01-30T23:06:31.438Z,2.77
2023-01-30T23:09:03.248Z,2.71
2023-01-30T23:11:35.747Z,2.72
2023-01-30T23:14:13.885Z,2.73
2023-01-30T23:16:46.127Z,2.75
2023-01-30T23:19:14.550Z,2.76
2023-01-30T23:21:46.805Z,2.71
2023-01-30T23:24:19.797Z,2.70
2023-01-30T23:26:51.805Z,2.71
2023-01-30T23:29:24.733Z,2.73
2023-01-30T23:31:54.760Z,2.72
2023-01-30T23:34:25.160Z,2.69
2023-01-30T23:36:55.243Z,2.70
2023-01-30T23:39:25.752Z,2.65
2023-01-30T23:41:55.741Z,2.67
2023-01-30T23:44:28.665Z,2.64
2023-01-30T23:46:58.798Z,2.64
2023-01-30T23:49:29.109Z,2.62
2023-01-30T23:51:59.075Z,2.63
2023-01-30T23:54:29.734Z,2.64
2023-01-30T23:56:59.748Z,2.58
2023-01-30T23:59:32.720Z,2.55
